createdAt,value
2018-11-23T00:00:23.974Z,6.90
2018-11-23T00:02:59.816Z,7.20
2018-11-23T00:08:15.457Z,7.50
2018-11-23T00:10:50.345Z,7.70
2018-11-23T00:13:25.454Z,7.80
2018-11-23T00:16:00.712Z,7.80
2018-11-23T00:18:35.988Z,7.80
2018-11-23T00:21:10.428Z,7.90
2018-11-23T00:23:45.649Z,7.80
2018-11-23T00:26:20.729Z,7.90
2018-11-23T00:28:55.076Z,7.60
2018-11-23T00:31:29.686Z,7.40
2018-11-23T00:34:04.530Z,7.60
2018-11-23T00:36:38.868Z,7.40
2018-11-23T00:39:14.288Z,7.40
2018-11-23T00:41:49.590Z,7.30
2018-11-23T00:44:24.073Z,7.30
2018-11-23T00:46:59.065Z,7.20
2018-11-23T00:49:33.508Z,7.10
2018-11-23T00:52:08.564Z,6.90
2018-11-23T00:54:43.001Z,7.10
2018-11-23T00:57:18.161Z,7.20
2018-11-23T00:59:52.830Z,7.40
2018-11-23T01:02:27.773Z,7.10
2018-11-23T01:05:03.197Z,7.20
2018-11-23T01:07:37.933Z,7.30
2018-11-23T01:10:13.647Z,6.80
2018-11-23T01:12:55.255Z,6.90
2018-11-23T01:15:30.148Z,6.90
2018-11-23T01:18:06.696Z,6.50
2018-11-23T01:20:41.124Z,6.60
2018-11-23T01:23:16.476Z,6.30
2018-11-23T01:25:52.008Z,6.50
2018-11-23T01:28:26.641Z,6.60
2018-11-23T01:31:01.413Z,6.60
2018-11-23T01:33:35.773Z,6.60
2018-11-23T01:36:10.289Z,6.70
2018-11-23T01:38:44.817Z,6.20
2018-11-23T01:41:20.176Z,5.80
2018-11-23T01:43:54.721Z,5.90
2018-11-23T01:46:30.072Z,6.30
2018-11-23T01:49:04.592Z,6.30
2018-11-23T01:51:39.722Z,6.30
2018-11-23T01:54:14.081Z,6.50
2018-11-23T01:56:49.780Z,6.40
2018-11-23T01:59:24.840Z,6.60
2018-11-23T02:01:59.744Z,6.70
2018-11-23T02:04:34.652Z,6.90
2018-11-23T02:07:09.298Z,7.10
2018-11-23T02:09:43.808Z,7.10
2018-11-23T02:12:18.506Z,7.00
2018-11-23T02:14:53.786Z,7.20
2018-11-23T02:17:29.123Z,7.10
2018-11-23T02:20:04.141Z,7.20
2018-11-23T02:22:38.849Z,7.00
2018-11-23T02:25:14.165Z,7.20
2018-11-23T02:27:48.538Z,7.40
2018-11-23T02:30:25.105Z,7.40
2018-11-23T02:32:59.427Z,7.60
2018-11-23T02:35:34.725Z,7.60
2018-11-23T02:38:09.165Z,7.40
2018-11-23T02:40:44.285Z,7.60
2018-11-23T02:43:18.671Z,7.60
2018-11-23T02:45:53.808Z,7.40
2018-11-23T02:48:28.284Z,7.10
2018-11-23T02:51:03.092Z,6.70
2018-11-23T02:53:38.291Z,6.90
2018-11-23T02:56:13.759Z,7.20
2018-11-23T02:58:48.319Z,6.50
2018-11-23T03:01:23.374Z,6.20
2018-11-23T03:03:58.493Z,6.20
2018-11-23T03:06:33.141Z,5.80
2018-11-23T03:09:08.853Z,6.30
2018-11-23T03:11:43.459Z,6.30
2018-11-23T03:14:18.767Z,6.60
2018-11-23T03:17:10.218Z,6.70
2018-11-23T03:19:45.109Z,6.70
2018-11-23T03:22:19.630Z,6.70
2018-11-23T03:24:59.300Z,6.30
2018-11-23T03:27:33.896Z,6.20
2018-11-23T03:30:11.145Z,6.20
2018-11-23T03:32:47.204Z,6.00
2018-11-23T03:35:26.818Z,5.90
2018-11-23T03:38:01.338Z,6.10
2018-11-23T03:40:36.368Z,6.40
2018-11-23T03:43:11.236Z,6.40
2018-11-23T03:45:46.738Z,6.50
2018-11-23T03:48:21.104Z,6.30
2018-11-23T03:50:55.781Z,6.20
2018-11-23T03:53:30.930Z,5.90
2018-11-23T03:56:06.313Z,6.00
2018-11-23T03:58:41.746Z,6.00
2018-11-23T04:01:16.260Z,6.00
2018-11-23T04:03:51.725Z,5.90
2018-11-23T04:06:26.112Z,5.60
2018-11-23T04:09:00.609Z,5.80
2018-11-23T04:11:35.242Z,5.90
2018-11-23T04:14:09.773Z,5.80
2018-11-23T04:16:46.510Z,5.70
2018-11-23T04:19:21.682Z,5.70
2018-11-23T04:21:56.253Z,5.70
2018-11-23T04:24:31.857Z,5.90
2018-11-23T04:27:07.013Z,5.80
2018-11-23T04:29:41.400Z,5.70
2018-11-23T04:32:16.085Z,5.50
2018-11-23T04:34:50.609Z,5.70
2018-11-23T04:37:25.711Z,6.10
2018-11-23T04:40:00.732Z,6.40
2018-11-23T04:42:35.377Z,6.50
2018-11-23T04:45:11.220Z,6.70
2018-11-23T04:47:45.667Z,6.70
2018-11-23T04:50:20.024Z,6.70
2018-11-23T04:52:55.489Z,6.80
2018-11-23T04:55:30.427Z,6.60
2018-11-23T04:58:05.571Z,6.50
2018-11-23T05:00:39.880Z,6.40
2018-11-23T05:03:14.912Z,6.60
2018-11-23T05:05:49.362Z,6.30
2018-11-23T05:08:24.300Z,5.90
2018-11-23T05:10:58.796Z,5.80
2018-11-23T05:13:33.289Z,6.00
2018-11-23T05:16:08.657Z,6.10
2018-11-23T05:18:44.096Z,6.40
2018-11-23T05:21:19.101Z,6.40
2018-11-23T05:23:54.452Z,5.90
2018-11-23T05:26:29.629Z,5.50
2018-11-23T05:29:04.012Z,5.80
2018-11-23T05:31:38.433Z,5.80
2018-11-23T05:34:12.920Z,6.00
2018-11-23T05:36:48.289Z,5.80
2018-11-23T05:39:34.201Z,5.30
2018-11-23T05:42:08.696Z,5.40
2018-11-23T05:44:43.423Z,5.50
2018-11-23T05:47:18.754Z,5.80
2018-11-23T05:49:53.093Z,5.80
2018-11-23T05:52:28.157Z,5.90
2018-11-23T05:55:03.369Z,5.50
2018-11-23T05:57:38.848Z,5.60
2018-11-23T06:00:16.562Z,5.10
2018-11-23T06:02:51.821Z,5.20
2018-11-23T06:05:26.352Z,5.40
2018-11-23T06:10:41.413Z,5.90
2018-11-23T06:13:16.550Z,5.90
2018-11-23T06:15:52.093Z,6.10
2018-11-23T06:18:38.388Z,5.60
2018-11-23T06:21:12.950Z,5.80
2018-11-23T06:25:17.098Z,5.60
2018-11-23T06:27:52.112Z,5.50
2018-11-23T06:30:27.535Z,5.60
2018-11-23T06:33:13.619Z,5.40
2018-11-23T06:35:48.736Z,5.90
2018-11-23T06:38:23.345Z,6.20
2018-11-23T06:40:59.406Z,6.00
2018-11-23T06:43:33.080Z,6.10
2018-11-23T06:46:09.893Z,6.20
2018-11-23T06:48:44.443Z,6.30
2018-11-23T06:51:19.605Z,5.90
2018-11-23T06:53:55.802Z,5.90
2018-11-23T06:56:30.966Z,6.00
2018-11-23T06:59:06.049Z,5.80
2018-11-23T07:01:40.512Z,5.80
2018-11-23T07:04:15.708Z,6.00
2018-11-23T07:06:51.006Z,6.10
2018-11-23T07:09:25.436Z,6.20
2018-11-23T07:12:00.287Z,6.10
2018-11-23T07:14:34.618Z,6.00
2018-11-23T07:17:13.980Z,6.20
2018-11-23T07:19:49.365Z,6.40
2018-11-23T07:22:24.058Z,6.40
2018-11-23T07:24:59.032Z,6.30
2018-11-23T07:27:33.718Z,6.60
2018-11-23T07:30:23.700Z,6.80
2018-11-23T07:32:58.123Z,6.80
2018-11-23T07:35:33.151Z,6.40
2018-11-23T07:38:07.601Z,6.70
2018-11-23T07:40:54.618Z,6.90
2018-11-23T07:43:29.037Z,6.80
2018-11-23T07:46:04.141Z,6.30
2018-11-23T07:48:38.648Z,5.90
2018-11-23T07:51:14.565Z,6.20
2018-11-23T07:53:51.228Z,5.90
2018-11-23T07:56:25.749Z,6.00
2018-11-23T07:59:01.117Z,6.10
2018-11-23T08:01:35.612Z,5.90
2018-11-23T08:04:10.713Z,5.80
2018-11-23T08:06:45.086Z,6.00
2018-11-23T08:09:19.524Z,6.00
2018-11-23T08:11:53.968Z,5.90
2018-11-23T08:14:29.256Z,6.20
2018-11-23T08:17:11.909Z,6.50
2018-11-23T08:19:47.456Z,6.40
2018-11-23T08:22:22.257Z,6.40
2018-11-23T08:25:00.589Z,6.70
2018-11-23T08:27:36.114Z,6.90
2018-11-23T08:30:14.624Z,7.00
2018-11-23T08:32:49.729Z,6.50
2018-11-23T08:35:28.689Z,6.70
2018-11-23T08:38:03.076Z,7.00
2018-11-23T08:40:38.377Z,7.10
2018-11-23T08:43:12.833Z,7.30
2018-11-23T08:45:48.197Z,7.10
2018-11-23T08:48:23.208Z,6.70
2018-11-23T08:50:57.829Z,6.60
2018-11-23T08:56:15.239Z,7.10
2018-11-23T08:58:50.541Z,7.00
2018-11-23T09:01:25.091Z,7.10
2018-11-23T09:04:00.492Z,6.70
2018-11-23T09:06:34.964Z,6.50
2018-11-23T09:09:10.473Z,6.30
2018-11-23T09:11:45.176Z,6.50
2018-11-23T09:14:19.512Z,6.90
2018-11-23T09:17:10.155Z,6.90
2018-11-23T09:19:45.452Z,7.20
2018-11-23T09:22:23.541Z,7.40
2018-11-23T09:24:55.515Z,7.50
2018-11-23T09:27:30.661Z,7.30
2018-11-23T09:30:08.770Z,7.40
2018-11-23T09:32:43.687Z,7.30
2018-11-23T09:35:26.115Z,6.80
2018-11-23T09:38:01.094Z,6.80
2018-11-23T09:40:36.436Z,6.90
2018-11-23T09:43:10.781Z,6.80
2018-11-23T09:45:45.987Z,7.00
2018-11-23T09:48:20.504Z,6.90
2018-11-23T09:50:54.982Z,7.30
2018-11-23T09:53:30.272Z,7.50
2018-11-23T09:56:05.341Z,7.60
2018-11-23T09:58:43.718Z,7.80
2018-11-23T10:01:14.993Z,7.80
2018-11-23T10:03:50.205Z,7.80
2018-11-23T10:06:24.723Z,7.30
2018-11-23T10:08:59.223Z,6.70
2018-11-23T10:11:33.710Z,6.20
2018-11-23T10:14:08.872Z,6.70
2018-11-23T10:16:43.323Z,7.00
2018-11-23T10:19:26.256Z,7.10
2018-11-23T10:22:00.772Z,7.50
2018-11-23T10:24:35.072Z,7.70
2018-11-23T10:27:10.480Z,8.00
2018-11-23T10:29:44.953Z,8.10
2018-11-23T10:32:20.329Z,8.00
2018-11-23T10:34:55.736Z,7.60
2018-11-23T10:37:30.764Z,7.40
2018-11-23T10:40:09.119Z,7.60
2018-11-23T10:42:43.997Z,7.70
2018-11-23T10:45:26.191Z,7.60
2018-11-23T10:48:02.762Z,7.80
2018-11-23T10:50:38.788Z,7.80
2018-11-23T10:53:15.108Z,7.60
2018-11-23T10:55:50.144Z,7.70
2018-11-23T10:58:25.264Z,7.80
2018-11-23T11:01:05.216Z,8.00
2018-11-23T11:05:48.773Z,8.10
2018-11-23T11:08:23.302Z,8.00
2018-11-23T11:10:58.009Z,7.50
2018-11-23T11:13:32.392Z,7.60
2018-11-23T11:16:07.759Z,7.50
2018-11-23T11:18:43.104Z,7.60
2018-11-23T11:21:17.466Z,7.40
2018-11-23T11:23:52.437Z,7.60
2018-11-23T11:26:27.704Z,7.10
2018-11-23T11:29:02.196Z,7.30
2018-11-23T11:31:36.944Z,7.20
2018-11-23T11:34:11.580Z,6.80
2018-11-23T11:36:46.789Z,6.90
2018-11-23T11:39:37.429Z,7.30
2018-11-23T11:42:12.264Z,7.60
2018-11-23T11:44:46.572Z,7.70
2018-11-23T11:47:21.512Z,8.00
2018-11-23T11:49:59.141Z,7.90
2018-11-23T11:52:31.329Z,8.10
2018-11-23T11:55:08.049Z,7.30
2018-11-23T11:57:43.362Z,7.30
2018-11-23T12:00:21.415Z,7.50
2018-11-23T12:02:56.741Z,7.20
2018-11-23T12:05:31.076Z,7.40
2018-11-23T12:08:05.952Z,7.20
2018-11-23T12:10:40.376Z,7.40
2018-11-23T12:13:15.025Z,7.80
2018-11-23T12:15:49.470Z,8.00
2018-11-23T12:18:24.888Z,8.30
2018-11-23T12:20:59.396Z,8.40
2018-11-23T12:23:33.798Z,8.30
2018-11-23T12:26:09.068Z,8.30
2018-11-23T12:28:43.673Z,8.50
2018-11-23T12:31:18.026Z,8.60
2018-11-23T12:33:52.709Z,8.70
2018-11-23T12:36:28.413Z,8.60
2018-11-23T12:39:03.045Z,8.60
2018-11-23T12:41:38.122Z,8.50
2018-11-23T12:44:12.649Z,8.50
2018-11-23T12:46:48.083Z,8.50
2018-11-23T12:49:22.627Z,8.60
2018-11-23T12:51:57.812Z,8.40
2018-11-23T12:54:33.244Z,8.60
2018-11-23T12:59:47.987Z,8.70
2018-11-23T13:02:23.112Z,8.10
2018-11-23T13:04:58.619Z,8.00
2018-11-23T13:07:33.326Z,8.00
2018-11-23T13:10:07.769Z,8.00
2018-11-23T13:12:42.184Z,8.20
2018-11-23T13:15:16.783Z,7.90
2018-11-23T13:17:52.422Z,8.20
2018-11-23T13:20:27.499Z,8.40
2018-11-23T13:23:02.013Z,8.10
2018-11-23T13:25:36.617Z,8.00
2018-11-23T13:28:11.591Z,8.10
2018-11-23T13:30:45.989Z,8.00
2018-11-23T13:33:20.612Z,8.00
2018-11-23T13:35:55.958Z,8.10
2018-11-23T13:38:31.072Z,8.20
2018-11-23T13:41:06.535Z,8.30
2018-11-23T13:43:40.865Z,8.50
2018-11-23T13:46:16.260Z,8.40
2018-11-23T13:48:50.617Z,8.40
2018-11-23T13:51:26.144Z,8.20
2018-11-23T13:54:01.377Z,8.20
2018-11-23T13:56:36.336Z,8.30
2018-11-23T13:59:11.591Z,8.50
2018-11-23T14:01:46.349Z,8.40
2018-11-23T14:04:21.721Z,8.30
2018-11-23T14:06:56.368Z,8.20
2018-11-23T14:09:31.589Z,7.90
2018-11-23T14:12:06.185Z,7.70
2018-11-23T14:14:40.689Z,7.80
2018-11-23T14:17:16.281Z,7.80
2018-11-23T14:19:51.862Z,7.40
2018-11-23T14:22:26.759Z,7.30
2018-11-23T14:25:01.190Z,7.40
2018-11-23T14:27:36.875Z,7.70
2018-11-23T14:30:14.058Z,7.70
2018-11-23T14:32:49.200Z,7.50
2018-11-23T14:35:31.322Z,7.60
2018-11-23T14:38:05.912Z,8.00
2018-11-23T14:40:40.909Z,8.20
2018-11-23T14:43:15.569Z,8.10
2018-11-23T14:45:50.759Z,8.20
2018-11-23T14:48:25.290Z,8.30
2018-11-23T14:50:59.912Z,8.30
2018-11-23T14:53:34.872Z,8.30
2018-11-23T14:56:10.340Z,8.20
2018-11-23T14:58:44.664Z,7.60
2018-11-23T15:01:19.664Z,7.50
2018-11-23T15:03:54.737Z,7.30
2018-11-23T15:06:29.294Z,7.40
2018-11-23T15:09:04.672Z,7.60
2018-11-23T15:11:39.606Z,7.60
2018-11-23T15:14:13.931Z,7.70
2018-11-23T15:16:48.349Z,7.90
2018-11-23T15:19:23.489Z,8.10
2018-11-23T15:21:58.029Z,8.20
2018-11-23T15:24:32.567Z,8.20
2018-11-23T15:27:07.636Z,8.30
2018-11-23T15:29:42.146Z,8.30
2018-11-23T15:32:16.602Z,8.20
2018-11-23T15:34:51.186Z,8.20
2018-11-23T15:37:26.788Z,8.10
2018-11-23T15:40:02.627Z,8.20
2018-11-23T15:42:37.266Z,8.10
2018-11-23T15:45:14.545Z,8.00
2018-11-23T15:47:49.957Z,8.00
2018-11-23T15:50:25.950Z,7.80
2018-11-23T15:53:01.024Z,7.90
2018-11-23T15:55:38.516Z,8.10
2018-11-23T15:58:14.320Z,8.30
2018-11-23T16:00:53.525Z,8.20
2018-11-23T16:03:29.009Z,8.20
2018-11-23T16:06:03.404Z,7.90
2018-11-23T16:08:37.796Z,8.10
2018-11-23T16:11:12.144Z,8.20
2018-11-23T16:13:47.117Z,8.30
2018-11-23T16:16:21.709Z,8.30
2018-11-23T16:18:57.445Z,8.20
2018-11-23T16:21:31.825Z,8.20
2018-11-23T16:24:07.075Z,8.20
2018-11-23T16:26:42.491Z,8.20
2018-11-23T16:29:17.067Z,8.30
2018-11-23T16:31:52.648Z,8.30
2018-11-23T16:34:27.297Z,8.30
2018-11-23T16:37:02.501Z,8.20
2018-11-23T16:39:46.372Z,8.10
2018-11-23T16:42:20.867Z,8.10
2018-11-23T16:44:55.452Z,8.20
2018-11-23T16:47:31.823Z,8.30
2018-11-23T16:50:07.487Z,8.30
2018-11-23T16:52:43.946Z,8.30
2018-11-23T16:55:20.783Z,8.20
2018-11-23T16:57:58.837Z,8.20
2018-11-23T17:00:36.100Z,8.30
2018-11-23T17:03:17.227Z,8.30
2018-11-23T17:05:55.353Z,8.30
2018-11-23T17:08:30.968Z,8.30
2018-11-23T17:11:05.569Z,8.30
2018-11-23T17:13:40.916Z,8.30
2018-11-23T17:16:16.240Z,8.30
2018-11-23T17:18:52.089Z,8.30
2018-11-23T17:21:27.848Z,8.30
2018-11-23T17:24:03.154Z,8.30
2018-11-23T17:26:40.024Z,8.30
2018-11-23T17:29:18.328Z,8.30
2018-11-23T17:31:51.795Z,8.30
2018-11-23T17:34:27.789Z,8.20
2018-11-23T17:37:05.435Z,8.20
2018-11-23T17:39:47.577Z,8.20
2018-11-23T17:42:22.601Z,8.20
2018-11-23T17:44:58.127Z,8.20
2018-11-23T17:47:34.858Z,8.20
2018-11-23T17:50:11.544Z,8.20
2018-11-23T17:52:50.537Z,8.10
2018-11-23T17:55:26.933Z,8.00
2018-11-23T17:58:02.259Z,8.10
2018-11-23T18:00:39.282Z,8.00
2018-11-23T18:03:13.499Z,8.00
2018-11-23T18:05:48.133Z,8.00
2018-11-23T18:08:22.612Z,8.00
2018-11-23T18:10:57.129Z,8.00
2018-11-23T18:13:31.552Z,7.90
2018-11-23T18:16:06.488Z,7.80
2018-11-23T18:18:42.979Z,7.80
2018-11-23T18:21:18.282Z,7.90
2018-11-23T18:23:52.977Z,7.90
2018-11-23T18:26:28.769Z,7.90
2018-11-23T18:29:03.315Z,7.80
2018-11-23T18:31:38.049Z,7.80
2018-11-23T18:34:12.635Z,7.80
2018-11-23T18:36:48.392Z,7.80
2018-11-23T18:39:22.880Z,7.80
2018-11-23T18:41:58.997Z,7.90
2018-11-23T18:44:33.430Z,7.90
2018-11-23T18:47:10.416Z,7.90
2018-11-23T18:49:44.962Z,7.80
2018-11-23T18:52:21.511Z,7.90
2018-11-23T18:54:58.313Z,7.80
2018-11-23T18:57:32.956Z,7.80
2018-11-23T19:00:13.758Z,7.80
2018-11-23T19:02:50.931Z,7.70
2018-11-23T19:05:27.696Z,7.60
2018-11-23T19:08:02.227Z,7.60
2018-11-23T19:10:36.942Z,7.70
2018-11-23T19:13:11.365Z,7.70
2018-11-23T19:15:46.083Z,7.70
2018-11-23T19:18:22.701Z,7.70
2018-11-23T19:20:57.152Z,7.70
2018-11-23T19:23:33.071Z,7.70
2018-11-23T19:26:09.393Z,7.70
2018-11-23T19:28:43.824Z,7.70
2018-11-23T19:31:18.784Z,7.60
2018-11-23T19:33:59.130Z,7.60
2018-11-23T19:36:28.989Z,7.60
2018-11-23T19:39:03.549Z,7.50
2018-11-23T19:41:38.827Z,7.30
2018-11-23T19:44:13.332Z,7.50
2018-11-23T19:46:49.720Z,7.50
2018-11-23T19:49:24.724Z,7.10
2018-11-23T19:52:00.917Z,7.20
2018-11-23T19:54:36.708Z,7.30
2018-11-23T19:57:11.333Z,7.50
2018-11-23T19:59:46.078Z,7.40
2018-11-23T20:02:21.465Z,7.40
2018-11-23T20:04:57.428Z,7.40
2018-11-23T20:07:31.906Z,7.50
2018-11-23T20:10:10.697Z,7.50
2018-11-23T20:12:46.233Z,7.40
2018-11-23T20:15:20.770Z,7.30
2018-11-23T20:17:55.997Z,7.20
2018-11-23T20:20:31.961Z,7.10
2018-11-23T20:23:07.188Z,7.10
2018-11-23T20:25:41.742Z,7.00
2018-11-23T20:28:18.201Z,7.00
2018-11-23T20:30:52.603Z,6.90
2018-11-23T20:33:27.015Z,6.90
2018-11-23T20:36:02.145Z,7.00
2018-11-23T20:38:36.736Z,7.00
2018-11-23T20:41:11.806Z,6.90
2018-11-23T20:43:46.248Z,6.80
2018-11-23T20:46:22.606Z,6.80
2018-11-23T20:48:57.170Z,6.90
2018-11-23T20:51:34.217Z,7.00
2018-11-23T20:54:10.863Z,7.00
2018-11-23T20:56:45.495Z,7.00
2018-11-23T20:59:20.157Z,7.00
2018-11-23T21:02:00.202Z,7.00
2018-11-23T21:04:36.085Z,7.10
2018-11-23T21:07:10.497Z,6.90
2018-11-23T21:09:45.341Z,7.00
2018-11-23T21:12:19.852Z,7.00
2018-11-23T21:14:54.344Z,7.10
2018-11-23T21:17:30.345Z,7.10
2018-11-23T21:20:06.669Z,7.10
2018-11-23T21:22:41.270Z,7.10
2018-11-23T21:25:16.124Z,7.00
2018-11-23T21:27:51.573Z,6.90
2018-11-23T21:30:26.149Z,6.90
2018-11-23T21:33:00.672Z,7.00
2018-11-23T21:35:35.926Z,7.10
2018-11-23T21:38:10.380Z,7.20
2018-11-23T21:40:45.995Z,6.90
2018-11-23T21:43:20.497Z,6.70
2018-11-23T21:45:58.239Z,6.80
2018-11-23T21:48:32.644Z,6.80
2018-11-23T21:51:06.960Z,6.90
2018-11-23T21:53:48.716Z,6.60
2018-11-23T21:56:23.263Z,6.70
2018-11-23T21:58:57.946Z,6.70
2018-11-23T22:01:32.885Z,6.80
2018-11-23T22:04:07.954Z,6.90
2018-11-23T22:06:42.379Z,7.00
2018-11-23T22:09:16.717Z,6.90
2018-11-23T22:11:52.416Z,6.90
2018-11-23T22:14:25.639Z,7.00
2018-11-23T22:17:13.154Z,7.00
2018-11-23T22:19:48.648Z,7.00
2018-11-23T22:22:22.946Z,7.00
2018-11-23T22:24:57.434Z,6.90
2018-11-23T22:27:33.019Z,7.00
2018-11-23T22:30:12.610Z,7.00
2018-11-23T22:32:47.040Z,7.10
2018-11-23T22:38:02.421Z,7.00
2018-11-23T22:40:37.638Z,7.00
2018-11-23T22:43:12.133Z,7.20
2018-11-23T22:45:46.814Z,7.20
2018-11-23T22:48:22.023Z,7.20
2018-11-23T22:50:56.673Z,7.20
2018-11-23T22:53:31.992Z,7.20
2018-11-23T22:56:07.372Z,7.20
2018-11-23T22:58:41.808Z,7.20
2018-11-23T23:01:18.313Z,7.30
2018-11-23T23:03:53.551Z,7.20
2018-11-23T23:06:28.350Z,7.30
2018-11-23T23:09:02.922Z,7.20
2018-11-23T23:11:37.878Z,7.10
2018-11-23T23:14:12.405Z,7.10
2018-11-23T23:16:46.915Z,7.10
2018-11-23T23:19:22.080Z,7.10
2018-11-23T23:21:56.443Z,7.10
2018-11-23T23:24:30.861Z,7.10
2018-11-23T23:27:06.045Z,7.20
2018-11-23T23:29:40.509Z,7.20
2018-11-23T23:32:15.023Z,7.20
2018-11-23T23:34:49.461Z,7.20
2018-11-23T23:37:24.759Z,7.20
2018-11-23T23:40:08.523Z,7.10
2018-11-23T23:42:43.112Z,7.20
2018-11-23T23:45:18.945Z,7.20
2018-11-23T23:47:54.300Z,7.30
2018-11-23T23:50:28.808Z,7.30
2018-11-23T23:53:03.749Z,7.20
2018-11-23T23:55:38.893Z,7.20
2018-11-23T23:58:13.340Z,7.20
